sensor_id;sensor_type;location;lat;lon;timestamp;temperature;humidity
42905;DHT22;28550;51.228;4.528;2023-07-29T00:00:32;19.30;73.30
42905;DHT22;28550;51.228;4.528;2023-07-29T00:03:20;19.20;75.00
42905;DHT22;28550;51.228;4.528;2023-07-29T00:05:52;19.30;65.50
42905;DHT22;28550;51.228;4.528;2023-07-29T00:08:41;19.50;50.90
42905;DHT22;28550;51.228;4.528;2023-07-29T00:11:34;19.50;51.70
42905;DHT22;28550;51.228;4.528;2023-07-29T00:14:10;19.60;45.70
42905;DHT22;28550;51.228;4.528;2023-07-29T00:17:06;19.50;48.40
42905;DHT22;28550;51.228;4.528;2023-07-29T00:19:31;19.40;52.10
42905;DHT22;28550;51.228;4.528;2023-07-29T00:21:58;19.30;54.50
42905;DHT22;28550;51.228;4.528;2023-07-29T00:24:34;19.30;56.00
42905;DHT22;28550;51.228;4.528;2023-07-29T00:27:13;19.30;57.80
42905;DHT22;28550;51.228;4.528;2023-07-29T00:30:42;19.30;52.20
42905;DHT22;28550;51.228;4.528;2023-07-29T00:33:19;19.30;59.30
42905;DHT22;28550;51.228;4.528;2023-07-29T00:36:10;19.20;58.80
42905;DHT22;28550;51.228;4.528;2023-07-29T00:38:44;19.20;58.40
42905;DHT22;28550;51.228;4.528;2023-07-29T00:41:11;19.20;58.30
42905;DHT22;28550;51.228;4.528;2023-07-29T00:43:38;19.20;57.70
42905;DHT22;28550;51.228;4.528;2023-07-29T00:46:11;19.20;58.30
42905;DHT22;28550;51.228;4.528;2023-07-29T00:54:05;19.20;60.10
42905;DHT22;28550;51.228;4.528;2023-07-29T00:56:48;19.20;51.80
42905;DHT22;28550;51.228;4.528;2023-07-29T00:59:17;19.10;59.70
42905;DHT22;28550;51.228;4.528;2023-07-29T01:01:43;19.10;49.80
42905;DHT22;28550;51.228;4.528;2023-07-29T01:04:09;19.10;55.30
42905;DHT22;28550;51.228;4.528;2023-07-29T01:15:46;19.20;47.90
42905;DHT22;28550;51.228;4.528;2023-07-29T01:18:31;19.00;58.00
42905;DHT22;28550;51.228;4.528;2023-07-29T01:21:08;19.00;56.40
42905;DHT22;28550;51.228;4.528;2023-07-29T01:23:47;19.00;60.00
42905;DHT22;28550;51.228;4.528;2023-07-29T01:26:14;18.80;61.70
42905;DHT22;28550;51.228;4.528;2023-07-29T01:28:50;18.90;57.60
42905;DHT22;28550;51.228;4.528;2023-07-29T01:31:48;18.90;59.70
42905;DHT22;28550;51.228;4.528;2023-07-29T01:37:34;18.80;63.10
42905;DHT22;28550;51.228;4.528;2023-07-29T01:40:23;18.60;70.30
42905;DHT22;28550;51.228;4.528;2023-07-29T01:42:56;18.50;73.50
42905;DHT22;28550;51.228;4.528;2023-07-29T01:45:35;18.50;78.90
42905;DHT22;28550;51.228;4.528;2023-07-29T01:48:05;18.40;77.90
42905;DHT22;28550;51.228;4.528;2023-07-29T01:54:21;18.50;80.50
42905;DHT22;28550;51.228;4.528;2023-07-29T01:56:32;18.40;83.40
42905;DHT22;28550;51.228;4.528;2023-07-29T01:58:58;18.50;77.10
42905;DHT22;28550;51.228;4.528;2023-07-29T02:01:23;18.40;79.80
42905;DHT22;28550;51.228;4.528;2023-07-29T02:03:52;18.30;78.70
42905;DHT22;28550;51.228;4.528;2023-07-29T02:06:30;18.30;77.70
42905;DHT22;28550;51.228;4.528;2023-07-29T02:09:05;18.20;83.70
42905;DHT22;28550;51.228;4.528;2023-07-29T02:11:52;18.20;85.20
42905;DHT22;28550;51.228;4.528;2023-07-29T02:14:24;18.30;76.70
42905;DHT22;28550;51.228;4.528;2023-07-29T02:17:04;18.30;68.40
42905;DHT22;28550;51.228;4.528;2023-07-29T02:19:59;18.30;71.40
42905;DHT22;28550;51.228;4.528;2023-07-29T02:22:28;18.10;76.00
42905;DHT22;28550;51.228;4.528;2023-07-29T02:25:26;18.10;77.60
42905;DHT22;28550;51.228;4.528;2023-07-29T02:27:55;18.20;76.70
42905;DHT22;28550;51.228;4.528;2023-07-29T02:30:21;18.10;73.90
42905;DHT22;28550;51.228;4.528;2023-07-29T02:33:25;18.10;79.00
42905;DHT22;28550;51.228;4.528;2023-07-29T02:35:59;18.20;79.80
42905;DHT22;28550;51.228;4.528;2023-07-29T02:38:35;18.10;78.20
42905;DHT22;28550;51.228;4.528;2023-07-29T02:41:10;18.10;77.50
42905;DHT22;28550;51.228;4.528;2023-07-29T02:43:42;18.00;84.50
42905;DHT22;28550;51.228;4.528;2023-07-29T02:46:11;18.00;81.20
42905;DHT22;28550;51.228;4.528;2023-07-29T02:48:55;18.10;79.10
42905;DHT22;28550;51.228;4.528;2023-07-29T02:51:27;18.00;78.10
42905;DHT22;28550;51.228;4.528;2023-07-29T02:54:06;18.10;74.90
42905;DHT22;28550;51.228;4.528;2023-07-29T02:56:41;18.00;80.80
42905;DHT22;28550;51.228;4.528;2023-07-29T02:59:27;17.90;81.00
42905;DHT22;28550;51.228;4.528;2023-07-29T03:02:00;17.90;82.30
42905;DHT22;28550;51.228;4.528;2023-07-29T03:04:39;17.90;79.30
42905;DHT22;28550;51.228;4.528;2023-07-29T03:10:04;17.90;82.50
42905;DHT22;28550;51.228;4.528;2023-07-29T03:12:31;17.80;84.50
42905;DHT22;28550;51.228;4.528;2023-07-29T03:15:11;17.90;78.90
42905;DHT22;28550;51.228;4.528;2023-07-29T03:17:44;17.90;85.70
42905;DHT22;28550;51.228;4.528;2023-07-29T03:20:30;17.80;84.70
42905;DHT22;28550;51.228;4.528;2023-07-29T03:22:59;17.80;85.50
42905;DHT22;28550;51.228;4.528;2023-07-29T03:25:28;17.70;85.60
42905;DHT22;28550;51.228;4.528;2023-07-29T03:27:56;17.70;83.80
42905;DHT22;28550;51.228;4.528;2023-07-29T03:30:24;17.80;85.10
42905;DHT22;28550;51.228;4.528;2023-07-29T03:32:52;17.80;83.00
42905;DHT22;28550;51.228;4.528;2023-07-29T03:35:18;17.70;88.30
42905;DHT22;28550;51.228;4.528;2023-07-29T03:43:44;17.70;90.10
42905;DHT22;28550;51.228;4.528;2023-07-29T03:46:10;17.80;83.50
42905;DHT22;28550;51.228;4.528;2023-07-29T03:48:35;17.80;83.40
42905;DHT22;28550;51.228;4.528;2023-07-29T03:51:01;17.80;81.80
42905;DHT22;28550;51.228;4.528;2023-07-29T03:53:30;17.80;82.70
42905;DHT22;28550;51.228;4.528;2023-07-29T03:56:11;17.80;84.70
42905;DHT22;28550;51.228;4.528;2023-07-29T03:58:36;17.70;83.40
42905;DHT22;28550;51.228;4.528;2023-07-29T04:01:05;17.70;82.30
42905;DHT22;28550;51.228;4.528;2023-07-29T04:03:34;17.60;85.30
42905;DHT22;28550;51.228;4.528;2023-07-29T04:06:19;17.70;86.20
42905;DHT22;28550;51.228;4.528;2023-07-29T04:09:23;17.70;82.10
42905;DHT22;28550;51.228;4.528;2023-07-29T04:11:51;17.70;86.30
42905;DHT22;28550;51.228;4.528;2023-07-29T04:14:17;17.60;87.30
42905;DHT22;28550;51.228;4.528;2023-07-29T04:16:44;17.70;83.00
42905;DHT22;28550;51.228;4.528;2023-07-29T04:19:10;17.70;83.60
42905;DHT22;28550;51.228;4.528;2023-07-29T04:21:44;17.70;84.90
42905;DHT22;28550;51.228;4.528;2023-07-29T04:24:34;17.80;80.20
42905;DHT22;28550;51.228;4.528;2023-07-29T04:27:13;17.80;78.90
42905;DHT22;28550;51.228;4.528;2023-07-29T04:29:39;17.80;82.10
42905;DHT22;28550;51.228;4.528;2023-07-29T04:32:07;17.70;82.90
42905;DHT22;28550;51.228;4.528;2023-07-29T04:34:39;17.80;77.30
42905;DHT22;28550;51.228;4.528;2023-07-29T04:37:05;17.80;79.30
42905;DHT22;28550;51.228;4.528;2023-07-29T04:42:56;17.70;85.10
42905;DHT22;28550;51.228;4.528;2023-07-29T04:45:45;17.80;82.10
42905;DHT22;28550;51.228;4.528;2023-07-29T04:52:06;18.00;77.20
42905;DHT22;28550;51.228;4.528;2023-07-29T04:55:04;17.90;76.10
42905;DHT22;28550;51.228;4.528;2023-07-29T05:01:05;17.90;79.30
42905;DHT22;28550;51.228;4.528;2023-07-29T05:03:30;17.90;75.90
42905;DHT22;28550;51.228;4.528;2023-07-29T05:06:10;18.00;67.60
42905;DHT22;28550;51.228;4.528;2023-07-29T05:08:49;18.10;68.80
42905;DHT22;28550;51.228;4.528;2023-07-29T05:15:19;18.10;69.80
42905;DHT22;28550;51.228;4.528;2023-07-29T05:18:09;18.10;66.10
42905;DHT22;28550;51.228;4.528;2023-07-29T05:24:28;18.40;66.60
42905;DHT22;28550;51.228;4.528;2023-07-29T05:30:32;18.80;56.70
42905;DHT22;28550;51.228;4.528;2023-07-29T05:33:06;18.90;48.10
42905;DHT22;28550;51.228;4.528;2023-07-29T05:36:05;19.00;32.90
42905;DHT22;28550;51.228;4.528;2023-07-29T05:38:38;19.20;37.60
42905;DHT22;28550;51.228;4.528;2023-07-29T05:41:04;19.20;33.80
42905;DHT22;28550;51.228;4.528;2023-07-29T05:43:52;19.20;33.00
42905;DHT22;28550;51.228;4.528;2023-07-29T05:46:45;19.10;35.60
42905;DHT22;28550;51.228;4.528;2023-07-29T05:49:16;19.00;32.20
42905;DHT22;28550;51.228;4.528;2023-07-29T05:51:42;18.80;40.80
42905;DHT22;28550;51.228;4.528;2023-07-29T05:54:34;18.90;44.30
42905;DHT22;28550;51.228;4.528;2023-07-29T05:57:09;18.90;50.70
42905;DHT22;28550;51.228;4.528;2023-07-29T05:59:35;19.20;39.80
42905;DHT22;28550;51.228;4.528;2023-07-29T06:02:00;19.30;30.90
42905;DHT22;28550;51.228;4.528;2023-07-29T06:08:07;19.40;24.80
42905;DHT22;28550;51.228;4.528;2023-07-29T06:19:59;19.80;15.90
42905;DHT22;28550;51.228;4.528;2023-07-29T06:22:51;19.70;20.40
42905;DHT22;28550;51.228;4.528;2023-07-29T06:25:33;19.60;18.90
42905;DHT22;28550;51.228;4.528;2023-07-29T06:28:07;19.80;23.10
42905;DHT22;28550;51.228;4.528;2023-07-29T06:34:14;20.40;18.20
42905;DHT22;28550;51.228;4.528;2023-07-29T06:37:18;20.90;1.00
42905;DHT22;28550;51.228;4.528;2023-07-29T06:40:19;21.10;1.00
42905;DHT22;28550;51.228;4.528;2023-07-29T06:42:51;21.20;1.00
42905;DHT22;28550;51.228;4.528;2023-07-29T06:45:46;21.30;1.00
42905;DHT22;28550;51.228;4.528;2023-07-29T06:48:14;21.40;1.00
42905;DHT22;28550;51.228;4.528;2023-07-29T06:51:08;21.50;1.00
42905;DHT22;28550;51.228;4.528;2023-07-29T06:57:15;21.30;1.00
42905;DHT22;28550;51.228;4.528;2023-07-29T07:00:06;21.40;1.00
42905;DHT22;28550;51.228;4.528;2023-07-29T07:02:38;21.50;1.00
42905;DHT22;28550;51.228;4.528;2023-07-29T07:05:04;21.50;1.00
42905;DHT22;28550;51.228;4.528;2023-07-29T07:10:56;21.30;1.00
42905;DHT22;28550;51.228;4.528;2023-07-29T07:16:47;21.10;1.00
42905;DHT22;28550;51.228;4.528;2023-07-29T07:19:14;21.10;1.00
42905;DHT22;28550;51.228;4.528;2023-07-29T07:21:40;21.10;1.00
42905;DHT22;28550;51.228;4.528;2023-07-29T07:24:33;21.00;1.00
42905;DHT22;28550;51.228;4.528;2023-07-29T07:27:14;20.90;1.00
42905;DHT22;28550;51.228;4.528;2023-07-29T07:29:40;20.80;1.00
42905;DHT22;28550;51.228;4.528;2023-07-29T07:32:31;20.70;1.00
42905;DHT22;28550;51.228;4.528;2023-07-29T07:41:16;20.80;1.00
42905;DHT22;28550;51.228;4.528;2023-07-29T07:44:06;20.90;1.00
42905;DHT22;28550;51.228;4.528;2023-07-29T07:46:51;20.90;1.00
42905;DHT22;28550;51.228;4.528;2023-07-29T07:49:50;21.00;1.00
42905;DHT22;28550;51.228;4.528;2023-07-29T07:52:57;21.40;1.00
42905;DHT22;28550;51.228;4.528;2023-07-29T07:55:29;21.90;1.00
42905;DHT22;28550;51.228;4.528;2023-07-29T07:57:55;22.20;1.00
42905;DHT22;28550;51.228;4.528;2023-07-29T08:00:47;22.30;1.00
42905;DHT22;28550;51.228;4.528;2023-07-29T08:03:48;22.40;1.00
42905;DHT22;28550;51.228;4.528;2023-07-29T08:06:15;22.70;1.00
42905;DHT22;28550;51.228;4.528;2023-07-29T08:09:00;23.30;1.00
42905;DHT22;28550;51.228;4.528;2023-07-29T08:15:32;23.60;99.90
42905;DHT22;28550;51.228;4.528;2023-07-29T08:18:34;23.60;29.70
42905;DHT22;28550;51.228;4.528;2023-07-29T08:21:06;23.80;99.90
42905;DHT22;28550;51.228;4.528;2023-07-29T08:27:28;23.70;1.00
42905;DHT22;28550;51.228;4.528;2023-07-29T08:30:09;25.30;99.90
42905;DHT22;28550;51.228;4.528;2023-07-29T08:32:45;26.70;1.00
42905;DHT22;28550;51.228;4.528;2023-07-29T08:39:20;27.50;99.90
42905;DHT22;28550;51.228;4.528;2023-07-29T08:45:30;27.40;99.90
42905;DHT22;28550;51.228;4.528;2023-07-29T08:49:06;27.80;1.00
42905;DHT22;28550;51.228;4.528;2023-07-29T08:52:12;27.80;1.00
42905;DHT22;28550;51.228;4.528;2023-07-29T08:54:39;28.10;1.00
42905;DHT22;28550;51.228;4.528;2023-07-29T08:57:06;28.20;99.90
42905;DHT22;28550;51.228;4.528;2023-07-29T08:59:42;28.40;1.00
42905;DHT22;28550;51.228;4.528;2023-07-29T09:02:34;27.80;42.30
42905;DHT22;28550;51.228;4.528;2023-07-29T09:04:59;26.60;99.90
42905;DHT22;28550;51.228;4.528;2023-07-29T09:07:27;25.80;1.00
42905;DHT22;28550;51.228;4.528;2023-07-29T09:09:54;25.50;99.90
42905;DHT22;28550;51.228;4.528;2023-07-29T09:12:22;25.50;1.00
42905;DHT22;28550;51.228;4.528;2023-07-29T09:15:16;25.20;40.40
42905;DHT22;28550;51.228;4.528;2023-07-29T09:18:05;25.30;1.00
42905;DHT22;28550;51.228;4.528;2023-07-29T09:20:34;27.00;1.00
42905;DHT22;28550;51.228;4.528;2023-07-29T09:22:59;27.90;1.00
42905;DHT22;28550;51.228;4.528;2023-07-29T09:25:28;28.10;99.90
42905;DHT22;28550;51.228;4.528;2023-07-29T09:28:01;27.80;99.90
42905;DHT22;28550;51.228;4.528;2023-07-29T09:33:39;27.30;1.00
42905;DHT22;28550;51.228;4.528;2023-07-29T09:36:09;26.80;1.00
42905;DHT22;28550;51.228;4.528;2023-07-29T09:38:37;26.70;1.00
42905;DHT22;28550;51.228;4.528;2023-07-29T09:41:15;26.60;99.90
42905;DHT22;28550;51.228;4.528;2023-07-29T09:43:46;26.40;99.90
42905;DHT22;28550;51.228;4.528;2023-07-29T09:46:36;26.00;1.00
42905;DHT22;28550;51.228;4.528;2023-07-29T09:49:07;25.40;25.00
42905;DHT22;28550;51.228;4.528;2023-07-29T09:51:56;24.90;99.90
42905;DHT22;28550;51.228;4.528;2023-07-29T09:54:23;24.70;1.00
42905;DHT22;28550;51.228;4.528;2023-07-29T09:57:09;24.60;1.00
42905;DHT22;28550;51.228;4.528;2023-07-29T09:59:41;24.40;1.00
42905;DHT22;28550;51.228;4.528;2023-07-29T10:02:16;24.10;99.90
42905;DHT22;28550;51.228;4.528;2023-07-29T10:04:42;23.60;99.90
42905;DHT22;28550;51.228;4.528;2023-07-29T10:07:14;23.40;1.00
42905;DHT22;28550;51.228;4.528;2023-07-29T10:09:47;23.30;1.00
42905;DHT22;28550;51.228;4.528;2023-07-29T10:12:14;23.20;1.00
42905;DHT22;28550;51.228;4.528;2023-07-29T10:14:42;23.00;1.00
42905;DHT22;28550;51.228;4.528;2023-07-29T10:17:13;23.10;1.00
42905;DHT22;28550;51.228;4.528;2023-07-29T10:19:41;23.40;1.00
42905;DHT22;28550;51.228;4.528;2023-07-29T10:22:09;23.60;1.00
42905;DHT22;28550;51.228;4.528;2023-07-29T10:30:40;24.90;99.90
42905;DHT22;28550;51.228;4.528;2023-07-29T10:33:06;25.70;1.00
42905;DHT22;28550;51.228;4.528;2023-07-29T10:35:37;27.50;99.90
42905;DHT22;28550;51.228;4.528;2023-07-29T10:38:05;28.60;1.00
42905;DHT22;28550;51.228;4.528;2023-07-29T10:40:56;28.60;1.00
42905;DHT22;28550;51.228;4.528;2023-07-29T10:43:36;29.50;99.90
42905;DHT22;28550;51.228;4.528;2023-07-29T10:46:19;30.60;99.90
42905;DHT22;28550;51.228;4.528;2023-07-29T10:51:56;32.20;99.90
42905;DHT22;28550;51.228;4.528;2023-07-29T10:54:22;30.60;99.90
42905;DHT22;28550;51.228;4.528;2023-07-29T10:56:49;29.10;99.90
42905;DHT22;28550;51.228;4.528;2023-07-29T11:01:51;27.60;99.90
42905;DHT22;28550;51.228;4.528;2023-07-29T11:12:37;27.50;1.00
42905;DHT22;28550;51.228;4.528;2023-07-29T11:17:36;26.20;99.90
42905;DHT22;28550;51.228;4.528;2023-07-29T11:20:21;25.60;1.00
42905;DHT22;28550;51.228;4.528;2023-07-29T11:22:54;25.00;99.90
42905;DHT22;28550;51.228;4.528;2023-07-29T11:25:28;24.20;99.90
42905;DHT22;28550;51.228;4.528;2023-07-29T11:28:14;23.40;1.00
42905;DHT22;28550;51.228;4.528;2023-07-29T11:55:30;20.20;99.90
42905;DHT22;28550;51.228;4.528;2023-07-29T12:15:30;26.30;1.00
42905;DHT22;28550;51.228;4.528;2023-07-29T12:17:57;27.60;1.00
42905;DHT22;28550;51.228;4.528;2023-07-29T12:20:24;28.30;1.00
42905;DHT22;28550;51.228;4.528;2023-07-29T12:23:15;27.90;99.90
42905;DHT22;28550;51.228;4.528;2023-07-29T12:25:46;26.20;1.00
42905;DHT22;28550;51.228;4.528;2023-07-29T12:28:14;25.00;1.00
42905;DHT22;28550;51.228;4.528;2023-07-29T12:30:43;24.40;1.00
42905;DHT22;28550;51.228;4.528;2023-07-29T12:33:09;24.60;1.00
42905;DHT22;28550;51.228;4.528;2023-07-29T12:35:38;25.70;1.00
42905;DHT22;28550;51.228;4.528;2023-07-29T12:38:05;26.80;1.00
42905;DHT22;28550;51.228;4.528;2023-07-29T12:40:38;27.80;1.00
42905;DHT22;28550;51.228;4.528;2023-07-29T12:43:05;28.20;38.60
42905;DHT22;28550;51.228;4.528;2023-07-29T12:45:39;28.30;1.00
42905;DHT22;28550;51.228;4.528;2023-07-29T12:51:01;29.40;1.00
42905;DHT22;28550;51.228;4.528;2023-07-29T12:53:27;30.30;1.00
42905;DHT22;28550;51.228;4.528;2023-07-29T12:56:08;29.70;1.00
42905;DHT22;28550;51.228;4.528;2023-07-29T12:58:33;29.60;1.00
42905;DHT22;28550;51.228;4.528;2023-07-29T13:00:59;30.20;1.00
42905;DHT22;28550;51.228;4.528;2023-07-29T13:03:31;30.00;99.90
42905;DHT22;28550;51.228;4.528;2023-07-29T13:06:04;29.50;1.00
42905;DHT22;28550;51.228;4.528;2023-07-29T13:08:40;30.20;1.00
42905;DHT22;28550;51.228;4.528;2023-07-29T13:14:24;31.30;99.90
42905;DHT22;28550;51.228;4.528;2023-07-29T13:16:51;31.90;1.00
42905;DHT22;28550;51.228;4.528;2023-07-29T13:19:18;32.70;99.90
42905;DHT22;28550;51.228;4.528;2023-07-29T13:21:53;31.90;99.90
42905;DHT22;28550;51.228;4.528;2023-07-29T13:24:48;31.00;1.00
42905;DHT22;28550;51.228;4.528;2023-07-29T13:27:37;30.80;99.90
42905;DHT22;28550;51.228;4.528;2023-07-29T13:30:15;31.80;99.90
42905;DHT22;28550;51.228;4.528;2023-07-29T13:32:50;31.60;99.90
42905;DHT22;28550;51.228;4.528;2023-07-29T13:39:01;30.30;1.00
42905;DHT22;28550;51.228;4.528;2023-07-29T13:41:29;30.40;1.00
42905;DHT22;28550;51.228;4.528;2023-07-29T13:44:04;30.10;1.00
42905;DHT22;28550;51.228;4.528;2023-07-29T13:49:46;28.80;1.00
42905;DHT22;28550;51.228;4.528;2023-07-29T13:52:40;28.60;1.00
42905;DHT22;28550;51.228;4.528;2023-07-29T13:55:29;28.00;99.90
42905;DHT22;28550;51.228;4.528;2023-07-29T13:58:03;27.60;99.90
42905;DHT22;28550;51.228;4.528;2023-07-29T14:00:41;27.50;1.00
42905;DHT22;28550;51.228;4.528;2023-07-29T14:03:18;27.40;99.90
42905;DHT22;28550;51.228;4.528;2023-07-29T14:06:01;28.70;99.90
42905;DHT22;28550;51.228;4.528;2023-07-29T14:08:49;30.60;99.90
42905;DHT22;28550;51.228;4.528;2023-07-29T14:11:18;31.10;99.90
42905;DHT22;28550;51.228;4.528;2023-07-29T14:14:22;30.10;1.00
42905;DHT22;28550;51.228;4.528;2023-07-29T14:16:51;28.90;99.90
42905;DHT22;28550;51.228;4.528;2023-07-29T14:19:28;28.30;99.90
42905;DHT22;28550;51.228;4.528;2023-07-29T14:21:58;27.80;99.90
42905;DHT22;28550;51.228;4.528;2023-07-29T14:24:51;27.30;1.00
42905;DHT22;28550;51.228;4.528;2023-07-29T14:27:22;26.60;92.70
42905;DHT22;28550;51.228;4.528;2023-07-29T14:29:48;26.10;1.00
42905;DHT22;28550;51.228;4.528;2023-07-29T14:32:21;25.50;99.90
42905;DHT22;28550;51.228;4.528;2023-07-29T14:37:44;24.50;1.00
42905;DHT22;28550;51.228;4.528;2023-07-29T14:40:10;24.20;1.00
42905;DHT22;28550;51.228;4.528;2023-07-29T14:42:39;23.90;1.00
42905;DHT22;28550;51.228;4.528;2023-07-29T14:45:24;23.60;1.00
42905;DHT22;28550;51.228;4.528;2023-07-29T14:51:15;23.30;1.00
42905;DHT22;28550;51.228;4.528;2023-07-29T14:56:50;25.30;1.00
42905;DHT22;28550;51.228;4.528;2023-07-29T14:59:23;26.40;1.00
42905;DHT22;28550;51.228;4.528;2023-07-29T15:01:58;27.20;99.90
42905;DHT22;28550;51.228;4.528;2023-07-29T15:04:29;27.90;99.90
42905;DHT22;28550;51.228;4.528;2023-07-29T15:07:08;28.40;1.00
42905;DHT22;28550;51.228;4.528;2023-07-29T15:09:59;28.80;99.90
42905;DHT22;28550;51.228;4.528;2023-07-29T15:12:28;28.40;10.20
42905;DHT22;28550;51.228;4.528;2023-07-29T15:14:54;27.30;99.90
42905;DHT22;28550;51.228;4.528;2023-07-29T15:17:20;26.40;1.00
42905;DHT22;28550;51.228;4.528;2023-07-29T15:20:03;25.90;1.00
42905;DHT22;28550;51.228;4.528;2023-07-29T15:22:32;25.90;99.90
42905;DHT22;28550;51.228;4.528;2023-07-29T15:25:00;26.80;1.00
42905;DHT22;28550;51.228;4.528;2023-07-29T15:27:32;27.80;4.00
42905;DHT22;28550;51.228;4.528;2023-07-29T15:30:05;27.80;1.00
42905;DHT22;28550;51.228;4.528;2023-07-29T15:32:34;27.70;99.90
42905;DHT22;28550;51.228;4.528;2023-07-29T15:35:07;27.40;1.00
42905;DHT22;28550;51.228;4.528;2023-07-29T15:37:43;27.20;99.90
42905;DHT22;28550;51.228;4.528;2023-07-29T15:40:14;27.10;99.90
42905;DHT22;28550;51.228;4.528;2023-07-29T15:42:40;26.50;1.00
42905;DHT22;28550;51.228;4.528;2023-07-29T15:45:09;26.00;99.90
42905;DHT22;28550;51.228;4.528;2023-07-29T15:47:35;25.50;99.90
42905;DHT22;28550;51.228;4.528;2023-07-29T15:50:19;25.90;1.00
42905;DHT22;28550;51.228;4.528;2023-07-29T15:52:47;26.60;99.90
42905;DHT22;28550;51.228;4.528;2023-07-29T15:55:13;26.90;99.90
42905;DHT22;28550;51.228;4.528;2023-07-29T15:57:41;27.40;1.00
42905;DHT22;28550;51.228;4.528;2023-07-29T16:00:11;27.40;99.90
42905;DHT22;28550;51.228;4.528;2023-07-29T16:02:38;26.80;99.90
42905;DHT22;28550;51.228;4.528;2023-07-29T16:05:06;27.30;68.80
42905;DHT22;28550;51.228;4.528;2023-07-29T16:11:19;27.90;1.00
42905;DHT22;28550;51.228;4.528;2023-07-29T16:14:11;27.60;1.00
42905;DHT22;28550;51.228;4.528;2023-07-29T16:26:51;25.10;12.40
42905;DHT22;28550;51.228;4.528;2023-07-29T16:29:16;25.10;99.90
42905;DHT22;28550;51.228;4.528;2023-07-29T16:31:42;25.00;99.90
42905;DHT22;28550;51.228;4.528;2023-07-29T16:34:08;24.80;99.90
42905;DHT22;28550;51.228;4.528;2023-07-29T16:36:34;25.20;1.00
42905;DHT22;28550;51.228;4.528;2023-07-29T16:39:05;25.50;99.90
42905;DHT22;28550;51.228;4.528;2023-07-29T16:41:38;24.90;1.00
42905;DHT22;28550;51.228;4.528;2023-07-29T16:44:03;24.50;99.90
42905;DHT22;28550;51.228;4.528;2023-07-29T16:46:29;24.60;1.00
42905;DHT22;28550;51.228;4.528;2023-07-29T16:48:55;25.00;1.00
42905;DHT22;28550;51.228;4.528;2023-07-29T16:51:24;25.20;69.80
42905;DHT22;28550;51.228;4.528;2023-07-29T16:53:54;25.30;99.90
42905;DHT22;28550;51.228;4.528;2023-07-29T16:56:21;25.80;1.00
42905;DHT22;28550;51.228;4.528;2023-07-29T17:02:12;25.60;1.00
42905;DHT22;28550;51.228;4.528;2023-07-29T17:04:46;26.00;1.00
42905;DHT22;28550;51.228;4.528;2023-07-29T17:07:18;25.90;99.90
42905;DHT22;28550;51.228;4.528;2023-07-29T17:09:49;26.00;1.00
42905;DHT22;28550;51.228;4.528;2023-07-29T17:12:15;26.10;99.90
42905;DHT22;28550;51.228;4.528;2023-07-29T17:14:44;25.90;99.90
42905;DHT22;28550;51.228;4.528;2023-07-29T17:17:20;25.90;99.90
42905;DHT22;28550;51.228;4.528;2023-07-29T17:19:45;25.80;99.90
42905;DHT22;28550;51.228;4.528;2023-07-29T17:22:15;25.60;1.00
42905;DHT22;28550;51.228;4.528;2023-07-29T17:24:45;25.50;1.00
42905;DHT22;28550;51.228;4.528;2023-07-29T17:27:14;25.20;99.90
42905;DHT22;28550;51.228;4.528;2023-07-29T17:29:45;25.10;99.90
42905;DHT22;28550;51.228;4.528;2023-07-29T17:32:16;24.80;1.00
42905;DHT22;28550;51.228;4.528;2023-07-29T17:34:43;24.80;1.00
42905;DHT22;28550;51.228;4.528;2023-07-29T17:37:08;24.70;1.00
42905;DHT22;28550;51.228;4.528;2023-07-29T17:39:34;24.70;1.00
42905;DHT22;28550;51.228;4.528;2023-07-29T17:42:11;24.70;1.00
42905;DHT22;28550;51.228;4.528;2023-07-29T17:44:42;24.60;24.90
42905;DHT22;28550;51.228;4.528;2023-07-29T17:47:07;24.60;66.40
42905;DHT22;28550;51.228;4.528;2023-07-29T17:49:35;24.40;99.90
42905;DHT22;28550;51.228;4.528;2023-07-29T17:52:02;24.20;1.00
42905;DHT22;28550;51.228;4.528;2023-07-29T17:54:29;24.20;1.00
42905;DHT22;28550;51.228;4.528;2023-07-29T17:56:55;24.10;99.90
42905;DHT22;28550;51.228;4.528;2023-07-29T17:59:28;23.70;1.00
42905;DHT22;28550;51.228;4.528;2023-07-29T18:02:12;23.30;1.00
42905;DHT22;28550;51.228;4.528;2023-07-29T18:05:10;23.10;99.90
42905;DHT22;28550;51.228;4.528;2023-07-29T18:07:36;23.10;99.90
42905;DHT22;28550;51.228;4.528;2023-07-29T18:10:03;22.80;1.00
42905;DHT22;28550;51.228;4.528;2023-07-29T18:13:34;22.70;99.90
42905;DHT22;28550;51.228;4.528;2023-07-29T18:15:47;22.60;1.00
42905;DHT22;28550;51.228;4.528;2023-07-29T18:18:15;22.50;1.00
42905;DHT22;28550;51.228;4.528;2023-07-29T18:20:51;22.30;99.90
42905;DHT22;28550;51.228;4.528;2023-07-29T18:23:19;22.20;99.90
42905;DHT22;28550;51.228;4.528;2023-07-29T18:25:45;22.20;99.90
42905;DHT22;28550;51.228;4.528;2023-07-29T18:31:03;22.10;1.00
42905;DHT22;28550;51.228;4.528;2023-07-29T18:33:38;22.10;1.00
42905;DHT22;28550;51.228;4.528;2023-07-29T18:36:13;22.00;99.90
42905;DHT22;28550;51.228;4.528;2023-07-29T18:38:45;21.90;1.00
42905;DHT22;28550;51.228;4.528;2023-07-29T18:41:19;21.90;99.90
42905;DHT22;28550;51.228;4.528;2023-07-29T18:44:13;21.80;99.90
42905;DHT22;28550;51.228;4.528;2023-07-29T18:46:39;21.70;99.90
42905;DHT22;28550;51.228;4.528;2023-07-29T18:49:23;21.70;99.90
42905;DHT22;28550;51.228;4.528;2023-07-29T18:51:55;21.60;64.10
42905;DHT22;28550;51.228;4.528;2023-07-29T18:54:20;21.60;99.90
42905;DHT22;28550;51.228;4.528;2023-07-29T18:56:46;21.50;7.20
42905;DHT22;28550;51.228;4.528;2023-07-29T18:59:46;21.50;99.90
42905;DHT22;28550;51.228;4.528;2023-07-29T19:02:31;21.50;1.00
42905;DHT22;28550;51.228;4.528;2023-07-29T19:05:28;21.50;99.90
42905;DHT22;28550;51.228;4.528;2023-07-29T19:08:03;21.30;99.90
42905;DHT22;28550;51.228;4.528;2023-07-29T19:10:37;21.20;37.40
42905;DHT22;28550;51.228;4.528;2023-07-29T19:13:26;21.10;91.50
42905;DHT22;28550;51.228;4.528;2023-07-29T19:15:52;21.10;99.90
42905;DHT22;28550;51.228;4.528;2023-07-29T19:18:20;21.10;99.90
42905;DHT22;28550;51.228;4.528;2023-07-29T19:20:50;21.00;1.00
42905;DHT22;28550;51.228;4.528;2023-07-29T19:23:17;20.90;99.90
42905;DHT22;28550;51.228;4.528;2023-07-29T19:25:47;20.80;1.00
42905;DHT22;28550;51.228;4.528;2023-07-29T19:28:13;20.80;1.00
42905;DHT22;28550;51.228;4.528;2023-07-29T19:30:39;20.60;99.90
42905;DHT22;28550;51.228;4.528;2023-07-29T19:33:07;20.50;99.90
42905;DHT22;28550;51.228;4.528;2023-07-29T19:35:36;20.30;99.90
42905;DHT22;28550;51.228;4.528;2023-07-29T19:38:04;20.20;99.90
42905;DHT22;28550;51.228;4.528;2023-07-29T19:40:53;20.10;99.90
42905;DHT22;28550;51.228;4.528;2023-07-29T19:43:22;20.10;99.90
42905;DHT22;28550;51.228;4.528;2023-07-29T19:46:00;20.10;99.90
42905;DHT22;28550;51.228;4.528;2023-07-29T19:48:46;20.10;99.70
42905;DHT22;28550;51.228;4.528;2023-07-29T19:51:28;20.10;99.90
42905;DHT22;28550;51.228;4.528;2023-07-29T19:53:54;19.90;99.90
42905;DHT22;28550;51.228;4.528;2023-07-29T19:56:20;19.80;99.90